MGSJ

San Jose Airport (Guatemala)

Airport
ICAO code
MGSJ
IATA Code
GSJ
Summary
ICAO Region
CARSAM
ICAO Territory
Location

Puerto San Jose, Escuintla Department

Serving
Puerto San Jose
Elevation
29 ft
Coordinates
13° 56' 7" N , 90° 50' 10" W
KCC
Aw
Metar
Observation
MGSJ 120000Z 00000KT 9999 FEW040CB BKN070 28/24 Q1012 A2988 CB NE
Station
San Jose
Date/Time
2022-08-12 00:00:00
Wind direction
Wind speed
00 kts
Lowest cloud amount
few clouds
Temperature
28°C
Dew point
24°C
Humidity
78%
QNH
1012 hPa
Weather condition
n/a

San José Airport (Aeropuerto de Puerto San José, Escuintla) serves the city of Puerto San José, the recreative town of Monterrico, the port of Puerto Quetzal and the eastern Guatemalan Pacific coast.

Climatology

Tropical savannah climate (Köppen climate classification Aw)

Runways

Designator Length Width Surface Rops
15/33 2010 46 ASP No/No

Airport map

Aerial View

SKYbrary Partners:

Safety knowledge contributed by: